createdAt,value
2019-02-14T04:53:39.585Z,7.26
2019-02-14T04:56:10.196Z,7.26
2019-02-14T04:58:40.619Z,7.35
2019-02-14T05:01:11.053Z,7.50
2019-02-14T05:03:41.483Z,7.70
2019-02-14T05:06:12.013Z,7.90
2019-02-14T05:08:42.413Z,8.06
2019-02-14T05:11:12.867Z,8.21
2019-02-14T05:13:43.300Z,8.27
2019-02-14T05:16:13.699Z,8.38
2019-02-14T05:18:44.152Z,8.44
2019-02-14T05:21:14.579Z,8.41
2019-02-14T05:23:44.970Z,8.48
2019-02-14T05:26:15.421Z,8.49
2019-02-14T05:28:45.818Z,8.57
2019-02-14T05:31:16.281Z,8.63
2019-02-14T05:33:46.687Z,8.69
2019-02-14T05:36:17.083Z,8.74
2019-02-14T05:38:47.480Z,8.75
2019-02-14T05:41:17.883Z,8.79
2019-02-14T05:43:48.279Z,8.85
2019-02-14T05:46:18.762Z,8.90
2019-02-14T05:48:49.198Z,8.91
2019-02-14T05:51:19.613Z,8.95
2019-02-14T05:53:50.144Z,8.97
2019-02-14T05:56:20.676Z,8.94
2019-02-14T05:58:51.108Z,8.98
2019-02-14T06:01:21.638Z,8.95
2019-02-14T06:03:52.072Z,8.87
2019-02-14T06:06:22.606Z,8.87
2019-02-14T06:08:52.991Z,8.94
2019-02-14T06:11:23.389Z,8.80
2019-02-14T06:13:53.780Z,8.78
2019-02-14T06:16:24.183Z,8.84
2019-02-14T06:18:54.584Z,8.73
2019-02-14T06:21:24.994Z,8.74
2019-02-14T06:23:55.398Z,8.69
2019-02-14T06:26:25.793Z,8.64
2019-02-14T06:28:56.198Z,8.62
2019-02-14T06:31:26.599Z,8.62
2019-02-14T06:33:57.000Z,8.67
2019-02-14T06:36:27.399Z,8.60
2019-02-14T06:38:57.879Z,8.62
2019-02-14T06:41:28.292Z,8.62
2019-02-14T06:43:58.695Z,8.51
2019-02-14T06:46:29.099Z,8.58
2019-02-14T06:48:59.513Z,8.58
2019-02-14T06:51:29.911Z,8.68
2019-02-14T06:54:00.315Z,8.63
2019-02-14T06:56:30.707Z,8.60
2019-02-14T06:59:01.091Z,8.63
2019-02-14T07:01:31.477Z,8.61
2019-02-14T07:04:01.933Z,8.59
2019-02-14T07:06:32.342Z,8.70
2019-02-14T07:09:03.261Z,8.72
2019-02-14T07:11:33.666Z,8.75
2019-02-14T07:14:04.363Z,8.85
2019-02-14T07:16:34.898Z,8.73
2019-02-14T07:19:06.557Z,8.74
2019-02-14T07:21:36.997Z,8.83
2019-02-14T07:24:07.617Z,8.82
2019-02-14T07:26:38.102Z,8.97
2019-02-14T07:29:09.600Z,8.95
2019-02-14T07:31:40.029Z,9.02
2019-02-14T07:34:10.428Z,9.01
2019-02-14T07:36:40.830Z,9.00
2019-02-14T07:39:11.256Z,8.94
2019-02-14T07:41:41.658Z,9.01
2019-02-14T07:44:12.078Z,8.96
2019-02-14T07:46:42.795Z,8.97
2019-02-14T07:49:13.195Z,8.80
2019-02-14T07:51:43.966Z,8.83
2019-02-14T07:54:14.368Z,8.94
2019-02-14T07:56:44.816Z,8.96
2019-02-14T07:59:15.218Z,8.99
2019-02-14T08:01:45.627Z,8.98
2019-02-14T08:04:16.312Z,8.93
2019-02-14T08:06:46.855Z,8.91
2019-02-14T08:09:17.250Z,8.86
2019-02-14T08:11:47.650Z,8.86
2019-02-14T08:14:18.055Z,8.89
2019-02-14T08:16:48.461Z,8.93
2019-02-14T08:19:18.983Z,9.08
2019-02-14T08:21:49.412Z,9.07
2019-02-14T08:24:20.888Z,9.08
2019-02-14T08:26:51.275Z,9.18
2019-02-14T08:29:21.714Z,9.25
2019-02-14T08:31:52.116Z,9.40
2019-02-14T08:34:22.566Z,9.32
2019-02-14T08:36:53.095Z,9.29
2019-02-14T08:39:23.489Z,9.41
2019-02-14T08:41:56.826Z,9.37
2019-02-14T08:44:27.257Z,9.48
2019-02-14T08:46:57.786Z,9.44
2019-02-14T08:49:28.258Z,9.35
2019-02-14T08:51:58.677Z,9.39
2019-02-14T08:54:30.229Z,9.29
2019-02-14T08:57:01.782Z,9.50
2019-02-14T08:59:32.480Z,9.66
2019-02-14T09:02:02.871Z,9.62
2019-02-14T09:04:33.538Z,9.69
2019-02-14T09:07:03.971Z,9.78
2019-02-14T09:09:34.405Z,9.81
2019-02-14T09:12:04.825Z,9.82
2019-02-14T09:14:35.229Z,9.74
2019-02-14T09:17:05.694Z,9.67
2019-02-14T09:19:36.082Z,9.79
2019-02-14T09:22:06.465Z,9.70
2019-02-14T09:24:36.972Z,9.83
2019-02-14T09:27:07.397Z,9.83
2019-02-14T09:29:39.427Z,9.73
2019-02-14T09:32:09.847Z,9.68
2019-02-14T09:34:40.281Z,9.80
2019-02-14T09:37:12.247Z,9.88
2019-02-14T09:39:42.779Z,9.73
2019-02-14T09:42:13.180Z,9.77
2019-02-14T09:44:43.732Z,9.74
2019-02-14T09:47:14.138Z,9.54
2019-02-14T09:49:44.543Z,9.42
2019-02-14T09:52:15.030Z,9.52
2019-02-14T09:54:45.447Z,9.69
2019-02-14T09:57:15.884Z,9.85
2019-02-14T09:59:46.426Z,9.83
2019-02-14T10:02:16.940Z,10.02
2019-02-14T10:04:47.413Z,9.97
2019-02-14T10:07:17.915Z,9.81
2019-02-14T10:09:48.328Z,10.05
2019-02-14T10:12:18.764Z,9.96
2019-02-14T10:14:50.309Z,10.03
2019-02-14T10:17:22.413Z,10.11
2019-02-14T10:19:53.077Z,10.17
2019-02-14T10:22:23.531Z,10.24
2019-02-14T10:24:53.965Z,10.42
2019-02-14T10:27:24.363Z,10.21
2019-02-14T10:29:54.818Z,10.49
2019-02-14T10:32:25.345Z,10.53
2019-02-14T10:34:55.781Z,10.61
2019-02-14T10:37:26.188Z,10.72
2019-02-14T10:39:56.630Z,10.72
2019-02-14T10:42:27.060Z,10.66
2019-02-14T10:44:57.497Z,10.15
2019-02-14T10:47:28.027Z,10.14
2019-02-14T10:49:58.557Z,10.09
2019-02-14T10:52:30.011Z,10.32
2019-02-14T10:55:00.494Z,10.19
2019-02-14T10:57:30.957Z,10.23
2019-02-14T11:00:01.801Z,10.05
2019-02-14T11:02:32.230Z,10.19
2019-02-14T11:05:02.759Z,10.13
2019-02-14T11:07:33.236Z,10.36
2019-02-14T11:10:04.577Z,10.37
2019-02-14T11:12:34.971Z,10.48
2019-02-14T11:15:11.235Z,10.40
2019-02-14T11:17:41.636Z,10.31
2019-02-14T11:20:13.887Z,10.29
2019-02-14T11:22:44.365Z,10.36
2019-02-14T11:25:32.864Z,10.42
2019-02-14T11:28:03.259Z,10.31
2019-02-14T11:30:33.731Z,10.25
2019-02-14T11:33:04.193Z,10.20
2019-02-14T11:35:34.839Z,10.22
2019-02-14T11:38:05.234Z,10.52
2019-02-14T11:40:38.967Z,10.54
2019-02-14T11:43:09.376Z,10.64
2019-02-14T11:45:39.832Z,10.83
2019-02-14T11:48:10.253Z,10.98
2019-02-14T11:50:40.783Z,11.24
2019-02-14T11:53:14.236Z,11.40
2019-02-14T11:55:43.476Z,11.19
2019-02-14T11:58:14.007Z,11.25
2019-02-14T12:00:44.537Z,11.29
2019-02-14T12:03:14.972Z,10.98
2019-02-14T12:05:45.393Z,10.32
2019-02-14T12:08:15.824Z,10.38
2019-02-14T12:10:46.256Z,9.76
2019-02-14T12:13:16.675Z,9.73
2019-02-14T12:15:47.110Z,9.87
2019-02-14T12:18:17.639Z,9.81
2019-02-14T12:20:48.081Z,9.96
2019-02-14T12:23:19.553Z,10.01
2019-02-14T12:25:50.053Z,10.12
2019-02-14T12:28:21.198Z,10.29
2019-02-14T12:30:52.999Z,10.49
2019-02-14T12:33:23.493Z,10.48
2019-02-14T12:35:53.900Z,10.70
2019-02-14T12:38:24.345Z,10.62
2019-02-14T12:40:54.873Z,10.38
2019-02-14T12:43:25.307Z,10.25
2019-02-14T12:45:55.725Z,10.25
2019-02-14T12:48:26.157Z,10.29
2019-02-14T12:50:56.593Z,10.33
2019-02-14T12:53:27.118Z,10.34
2019-02-14T12:55:57.511Z,10.41
2019-02-14T12:58:27.970Z,10.60
2019-02-14T13:00:58.403Z,10.68
2019-02-14T13:03:28.936Z,11.01
2019-02-14T13:05:59.357Z,10.90
2019-02-14T13:08:29.999Z,10.67
2019-02-14T13:11:00.397Z,10.68
2019-02-14T13:13:30.850Z,10.85
2019-02-14T13:16:01.281Z,10.43
2019-02-14T13:18:31.911Z,10.55
2019-02-14T13:21:02.314Z,10.38
2019-02-14T13:23:32.763Z,10.39
2019-02-14T13:26:03.162Z,10.21
2019-02-14T13:28:33.630Z,10.13
2019-02-14T13:31:04.106Z,10.13
2019-02-14T13:33:34.576Z,10.11
2019-02-14T13:36:06.028Z,10.13
2019-02-14T13:38:36.465Z,9.91
2019-02-14T13:41:06.864Z,9.76
2019-02-14T13:43:37.321Z,9.69
2019-02-14T13:46:07.745Z,9.59
2019-02-14T13:48:38.178Z,9.68
2019-02-14T13:51:08.574Z,9.79
2019-02-14T13:53:39.127Z,9.86
2019-02-14T13:56:09.521Z,9.85
2019-02-14T13:58:39.992Z,9.87
2019-02-14T14:01:10.548Z,9.85
2019-02-14T14:03:41.073Z,9.96
2019-02-14T14:06:11.587Z,9.93
2019-02-14T14:08:42.051Z,9.95
2019-02-14T14:11:12.494Z,10.00
2019-02-14T14:13:42.970Z,9.83
2019-02-14T14:16:13.401Z,9.84
2019-02-14T14:18:44.855Z,9.67
2019-02-14T14:21:15.275Z,9.74
2019-02-14T14:23:45.705Z,9.71
2019-02-14T14:26:16.137Z,9.74
2019-02-14T14:28:46.558Z,9.80
2019-02-14T14:31:16.981Z,9.79
2019-02-14T14:33:47.522Z,9.86
2019-02-14T14:36:17.954Z,9.94
2019-02-14T14:38:48.372Z,10.01
2019-02-14T14:41:18.903Z,10.12
2019-02-14T14:43:50.969Z,10.23
2019-02-14T14:46:23.013Z,10.15
2019-02-14T14:48:53.678Z,10.11
2019-02-14T14:51:24.099Z,10.17
2019-02-14T14:53:54.498Z,10.20
2019-02-14T14:56:25.064Z,10.16
2019-02-14T14:58:55.495Z,10.26
2019-02-14T15:01:26.129Z,10.21
2019-02-14T15:03:56.555Z,10.17
2019-02-14T15:06:27.115Z,10.16
2019-02-14T15:08:57.505Z,9.94
2019-02-14T15:11:28.047Z,10.05
2019-02-14T15:13:58.471Z,9.90
2019-02-14T15:16:28.868Z,9.83
2019-02-14T15:18:59.268Z,9.85
2019-02-14T15:21:29.757Z,9.89
2019-02-14T15:24:00.143Z,9.84
2019-02-14T15:26:30.606Z,9.76
2019-02-14T15:29:01.145Z,9.82
2019-02-14T15:31:31.782Z,9.79
2019-02-14T15:34:02.182Z,9.78
2019-02-14T15:36:33.655Z,9.72
2019-02-14T15:39:04.868Z,9.66
2019-02-14T15:41:35.279Z,9.59
2019-02-14T15:44:05.748Z,9.68
2019-02-14T15:46:37.003Z,9.64
2019-02-14T15:49:07.398Z,9.66
2019-02-14T15:51:39.427Z,9.67
2019-02-14T15:54:11.806Z,9.52
2019-02-14T15:56:42.406Z,9.41
2019-02-14T15:59:12.802Z,9.42
2019-02-14T16:01:44.396Z,9.22
2019-02-14T16:04:14.942Z,9.30
2019-02-14T16:06:45.467Z,9.34
2019-02-14T16:09:16.629Z,9.28
2019-02-14T16:11:47.223Z,9.24
2019-02-14T16:14:20.868Z,9.27
2019-02-14T16:16:50.895Z,9.28
2019-02-14T16:19:21.384Z,9.24
2019-02-14T16:21:53.720Z,9.19
2019-02-14T16:24:23.983Z,9.25
2019-02-14T16:26:54.386Z,9.28
2019-02-14T16:29:27.101Z,9.32
2019-02-14T16:31:57.047Z,9.37
2019-02-14T16:34:28.511Z,9.42
2019-02-14T16:36:58.906Z,9.42
2019-02-14T16:39:29.686Z,9.32
2019-02-14T16:42:00.077Z,9.33
2019-02-14T16:44:30.469Z,9.40
2019-02-14T16:47:01.008Z,9.45
2019-02-14T16:49:31.440Z,9.41
2019-02-14T16:52:01.859Z,9.36
2019-02-14T16:54:32.291Z,9.32
2019-02-14T16:57:02.728Z,9.28
2019-02-14T16:59:33.181Z,9.24
2019-02-14T17:02:03.675Z,9.15
2019-02-14T17:04:34.065Z,9.08
2019-02-14T17:07:04.636Z,9.13
2019-02-14T17:09:35.070Z,9.17
2019-02-14T17:12:05.459Z,9.11
2019-02-14T17:14:35.856Z,9.21
2019-02-14T17:17:06.253Z,9.10
2019-02-14T17:19:36.680Z,9.07
2019-02-14T17:22:07.109Z,9.01
2019-02-14T17:24:37.529Z,9.04
2019-02-14T17:27:07.934Z,8.93
2019-02-14T17:29:38.316Z,8.96
2019-02-14T17:32:08.723Z,8.86
2019-02-14T17:34:39.106Z,8.88
2019-02-14T17:37:09.680Z,8.85
2019-02-14T17:39:40.075Z,8.81
2019-02-14T17:42:10.490Z,8.80
2019-02-14T17:44:40.891Z,8.79
2019-02-14T17:47:11.296Z,8.77
2019-02-14T17:49:41.717Z,8.67
2019-02-14T17:52:12.250Z,8.74
2019-02-14T17:54:42.651Z,8.85
2019-02-14T17:57:13.057Z,8.78
2019-02-14T17:59:43.450Z,8.81
2019-02-14T18:02:14.314Z,8.76
2019-02-14T18:04:44.795Z,8.73
2019-02-14T18:07:15.322Z,8.86
2019-02-14T18:09:45.758Z,8.85
2019-02-14T18:12:16.153Z,8.90
2019-02-14T18:14:46.560Z,8.89
2019-02-14T18:17:16.947Z,8.86
2019-02-14T18:19:47.702Z,8.90
2019-02-14T18:22:18.200Z,8.92
2019-02-14T18:24:48.593Z,8.89
2019-02-14T18:27:18.993Z,8.90
2019-02-14T18:29:49.395Z,8.74
2019-02-14T18:32:19.787Z,8.80
2019-02-14T18:34:50.193Z,8.79
2019-02-14T18:37:20.673Z,8.81
2019-02-14T18:39:51.114Z,8.77
2019-02-14T18:42:22.577Z,8.85
2019-02-14T18:44:53.088Z,8.84
2019-02-14T18:47:23.494Z,8.85
2019-02-14T18:49:57.663Z,8.86
2019-02-14T18:52:25.995Z,8.84
